Time;durP1;ratioP1;P1;durP2;ratioP2;P2;SDS_P1;SDS_P2;PMS_P1;PMS_P2;Temp;Humidity;BMP_temperature;BMP_pressure;BME280_temperature;BME280_humidity;BME280_pressure;Samples;Min_cycle;Max_cycle;Signal;HPM_P1;HPM_P2
2021/10/25 00:00:24;;;;;;;5.53;2.42;;;;;;;-1.55;100.00;93612.63;2085003;28;20032;-87
2021/10/25 00:01:29;;;;;;;4.22;2.55;;;;;;;-1.51;100.00;93617.97;2090802;28;20027;-87
2021/10/25 00:02:30;;;;;;;4.93;2.40;;;;;;;-1.47;100.00;93618.09;2094051;28;20483;-87
2021/10/25 00:03:34;;;;;;;2.35;2.10;;;;;;;-1.47;100.00;93618.84;2091399;28;20402;-88
2021/10/25 00:04:34;;;;;;;2.45;2.08;;;;;;;-1.45;100.00;93626.38;2095748;28;20487;-87
2021/10/25 00:05:37;;;;;;;2.58;1.88;;;;;;;-1.43;100.00;93614.50;2097807;28;20024;-87
2021/10/25 00:06:38;;;;;;;3.63;2.42;;;;;;;-1.47;100.00;93624.09;2093911;28;20368;-87
2021/10/25 00:07:39;;;;;;;4.50;2.17;;;;;;;-1.41;100.00;93617.53;2082357;28;20067;-87
2021/10/25 00:08:41;;;;;;;4.82;2.15;;;;;;;-1.35;100.00;93618.88;2085841;28;20027;-87
2021/10/25 00:09:42;;;;;;;2.38;1.77;;;;;;;-1.25;100.00;93622.13;2082961;28;20033;-88
2021/10/25 00:10:43;;;;;;;2.65;2.45;;;;;;;-1.30;100.00;93617.88;2093592;28;20506;-87
2021/10/25 00:11:44;;;;;;;3.03;2.60;;;;;;;-1.21;100.00;93620.38;2098846;28;20514;-87
2021/10/25 00:12:45;;;;;;;3.67;2.70;;;;;;;-1.29;100.00;93617.53;2098480;28;20016;-87
2021/10/25 00:13:46;;;;;;;3.30;1.92;;;;;;;-1.29;100.00;93622.03;2098858;28;20417;-87
2021/10/25 00:14:47;;;;;;;3.20;2.50;;;;;;;-1.19;100.00;93624.19;2096406;28;20066;-87
2021/10/25 00:15:48;;;;;;;2.17;1.80;;;;;;;-1.24;100.00;93615.78;2098762;28;20020;-87
2021/10/25 00:16:49;;;;;;;3.28;2.00;;;;;;;-1.28;100.00;93613.06;2088228;28;20024;-87
2021/10/25 00:17:50;;;;;;;3.53;2.05;;;;;;;-1.30;100.00;93610.00;2082014;28;20380;-86
2021/10/25 00:18:52;;;;;;;3.85;2.35;;;;;;;-1.41;100.00;93609.66;2096004;28;20132;-87
2021/10/25 00:19:53;;;;;;;4.53;2.40;;;;;;;-1.31;100.00;93618.97;2098867;28;20107;-87
2021/10/25 00:20:54;;;;;;;4.80;2.10;;;;;;;-1.31;100.00;93618.97;2103989;28;20024;-88
2021/10/25 00:21:55;;;;;;;3.05;2.72;;;;;;;-1.34;100.00;93611.75;2095847;28;20052;-87
2021/10/25 00:22:56;;;;;;;5.43;2.50;;;;;;;-1.38;100.00;93611.66;2082808;28;20032;-88
2021/10/25 00:23:57;;;;;;;2.60;2.40;;;;;;;-1.34;100.00;93611.75;2099009;28;20027;-87
2021/10/25 00:24:58;;;;;;;3.20;2.50;;;;;;;-1.36;100.00;93614.72;2111582;28;20019;-87
2021/10/25 00:25:59;;;;;;;3.00;2.28;;;;;;;-1.41;100.00;93611.53;2099634;28;20044;-87
2021/10/25 00:27:00;;;;;;;3.35;2.20;;;;;;;-1.34;100.00;93611.75;2089943;28;20511;-88
2021/10/25 00:28:02;;;;;;;3.35;2.33;;;;;;;-1.43;100.00;93614.50;2098397;28;20074;-87
2021/10/25 00:29:03;;;;;;;3.15;2.35;;;;;;;-1.36;100.00;93616.56;2090407;28;20070;-87
2021/10/25 00:30:05;;;;;;;4.75;2.90;;;;;;;-1.34;100.00;93609.13;2082387;28;20025;-87
2021/10/25 00:31:06;;;;;;;6.82;2.38;;;;;;;-1.36;100.00;93612.09;2090123;28;20036;-86
2021/10/25 00:32:07;;;;;;;3.58;2.65;;;;;;;-1.34;100.00;93614.38;2091685;28;19997;-86
2021/10/25 00:33:09;;;;;;;3.42;2.42;;;;;;;-1.32;100.00;93614.81;2092305;28;20013;-88
2021/10/25 00:34:11;;;;;;;4.78;2.30;;;;;;;-1.36;100.00;93611.31;2100356;28;20024;-87
2021/10/25 00:35:12;;;;;;;3.10;2.53;;;;;;;-1.39;100.00;93617.22;2092167;28;20120;-87
2021/10/25 00:36:14;;;;;;;4.97;2.60;;;;;;;-1.28;100.00;93611.19;2098660;28;20020;-87
2021/10/25 00:37:14;;;;;;;2.85;2.20;;;;;;;-1.33;100.00;93610.66;2096164;28;20024;-87
2021/10/25 00:38:16;;;;;;;7.72;2.60;;;;;;;-1.34;100.00;93617.00;2082066;28;20057;-87
2021/10/25 00:39:18;;;;;;;2.90;2.40;;;;;;;-1.39;100.00;93618.00;2100523;28;20429;-87
2021/10/25 00:40:20;;;;;;;3.42;2.28;;;;;;;-1.44;100.00;93620.81;2106869;28;20055;-87
2021/10/25 00:41:21;;;;;;;3.20;2.10;;;;;;;-1.48;100.00;93619.19;2090014;28;20111;-87
2021/10/25 00:42:23;;;;;;;6.10;2.28;;;;;;;-1.45;100.00;93627.13;2090471;28;20391;-86
2021/10/25 00:43:24;;;;;;;3.70;2.40;;;;;;;-1.45;100.00;93621.91;2092649;28;20029;-88
2021/10/25 00:44:28;;;;;;;3.28;2.00;;;;;;;-1.30;100.00;93618.63;2090289;28;20040;-86
2021/10/25 00:45:29;;;;;;;5.07;2.08;;;;;;;-1.25;100.00;93615.03;2090482;28;20051;-87
2021/10/25 00:46:30;;;;;;;2.13;1.92;;;;;;;-1.23;100.00;93618.06;2098501;28;20068;-87
2021/10/25 00:47:31;;;;;;;2.80;1.88;;;;;;;-1.26;100.00;93618.75;2099222;28;20082;-86
2021/10/25 00:48:33;;;;;;;4.95;1.80;;;;;;;-1.16;100.00;93609.66;2095742;28;20040;-87
2021/10/25 00:49:34;;;;;;;3.17;2.10;;;;;;;-1.18;100.00;93623.13;2097625;28;20043;-86
2021/10/25 00:50:36;;;;;;;2.28;1.77;;;;;;;-1.17;100.00;93613.41;2094545;28;20028;-87
2021/10/25 00:51:37;;;;;;;2.00;1.70;;;;;;;-1.22;100.00;93616.25;2084188;28;20057;-86
2021/10/25 00:52:39;;;;;;;2.08;1.83;;;;;;;-1.19;100.00;93611.09;2098534;28;20113;-87
2021/10/25 00:53:42;;;;;;;7.18;2.08;;;;;;;-1.23;100.00;93617.31;2098342;28;20553;-88
2021/10/25 00:54:43;;;;;;;5.05;1.88;;;;;;;-1.31;100.00;93616.34;2082171;28;20034;-88
2021/10/25 00:55:44;;;;;;;4.30;1.75;;;;;;;-1.33;100.00;93624.53;2090951;28;20025;-87
2021/10/25 00:56:46;;;;;;;1.95;1.73;;;;;;;-1.30;100.00;93617.88;2090299;28;20025;-87
2021/10/25 00:57:47;;;;;;;3.08;1.92;;;;;;;-1.33;100.00;93618.53;2106578;28;20028;-87
2021/10/25 00:58:48;;;;;;;2.58;2.03;;;;;;;-1.33;100.00;93613.28;2098336;28;20020;-87
2021/10/25 00:59:49;;;;;;;2.65;1.67;;;;;;;-1.38;100.00;93614.25;2097286;28;20439;-87
2021/10/25 01:00:50;;;;;;;3.63;1.85;;;;;;;-1.33;100.00;93616.66;2097761;28;20054;-86
2021/10/25 01:01:51;;;;;;;3.40;2.13;;;;;;;-1.42;100.00;93612.63;2098220;28;20058;-86
2021/10/25 01:02:51;;;;;;;3.00;1.92;;;;;;;-1.43;100.00;93608.47;2081793;28;20029;-87
2021/10/25 01:03:53;;;;;;;3.88;2.17;;;;;;;-1.44;100.00;93612.19;2103400;28;20028;-87
2021/10/25 01:04:55;;;;;;;2.05;1.83;;;;;;;-1.36;100.00;93606.84;2089597;28;20021;-87
2021/10/25 01:05:57;;;;;;;5.72;2.13;;;;;;;-1.29;100.00;93609.66;2090376;28;20033;-87
2021/10/25 01:06:59;;;;;;;2.58;1.55;;;;;;;-1.23;100.00;93601.59;2089917;28;20021;-87
2021/10/25 01:08:03;;;;;;;3.92;2.05;;;;;;;-1.23;100.00;93610.22;2082200;28;20040;-87
2021/10/25 01:09:06;;;;;;;3.10;2.15;;;;;;;-1.25;100.00;93611.66;2099806;27;20027;-88
2021/10/25 01:10:08;;;;;;;2.67;2.03;;;;;;;-1.39;100.00;93609.34;2115054;28;20032;-88
2021/10/25 01:11:10;;;;;;;5.28;1.80;;;;;;;-1.39;100.00;93604.88;2105655;28;20474;-86
2021/10/25 01:12:11;;;;;;;1.90;1.70;;;;;;;-1.41;100.00;93606.28;2099374;28;20054;-87
2021/10/25 01:13:13;;;;;;;4.53;2.08;;;;;;;-1.42;100.00;93602.91;2089940;28;20033;-87
2021/10/25 01:14:16;;;;;;;2.15;1.52;;;;;;;-1.43;100.00;93605.84;2090322;28;20111;-87
2021/10/25 01:15:17;;;;;;;3.17;2.33;;;;;;;-1.42;100.00;93610.00;2090153;28;20048;-88
2021/10/25 01:16:19;;;;;;;2.30;1.85;;;;;;;-1.48;100.00;93606.09;2106579;28;20027;-87
2021/10/25 01:17:20;;;;;;;3.33;1.90;;;;;;;-1.50;100.00;93613.50;2089305;28;20160;-87
2021/10/25 01:18:21;;;;;;;2.85;1.55;;;;;;;-1.49;100.00;93607.94;2106764;28;20052;-86
2021/10/25 01:19:22;;;;;;;2.90;1.80;;;;;;;-1.41;100.00;93608.91;2098675;28;20154;-86
2021/10/25 01:20:24;;;;;;;3.95;1.85;;;;;;;-1.40;100.00;93607.84;2098255;28;20116;-87
2021/10/25 01:21:25;;;;;;;2.65;1.80;;;;;;;-1.36;100.00;93608.69;2098221;28;20047;-86
2021/10/25 01:22:27;;;;;;;4.90;1.75;;;;;;;-1.34;100.00;93606.50;2105058;28;20024;-87
2021/10/25 01:23:28;;;;;;;2.20;1.75;;;;;;;-1.34;100.00;93603.88;2098910;28;20111;-87
2021/10/25 01:24:30;;;;;;;1.52;1.42;;;;;;;-1.36;100.00;93603.44;2098155;28;20028;-87
2021/10/25 01:25:30;;;;;;;1.75;1.58;;;;;;;-1.36;100.00;93606.84;2081679;28;20033;-87
2021/10/25 01:26:31;;;;;;;3.63;1.90;;;;;;;-1.34;100.00;93601.28;2089655;28;20569;-87
2021/10/25 01:27:33;;;;;;;1.92;1.70;;;;;;;-1.35;100.00;93602.38;2105495;28;20027;-87
2021/10/25 01:28:37;;;;;;;2.10;1.70;;;;;;;-1.38;100.00;93606.41;2089895;28;20407;-87
2021/10/25 01:29:38;;;;;;;2.75;1.73;;;;;;;-1.43;100.00;93598.00;2098570;28;20055;-88
2021/10/25 01:30:39;;;;;;;2.22;1.73;;;;;;;-1.44;100.00;93597.22;2089919;28;20032;-86
2021/10/25 01:31:40;;;;;;;1.90;1.80;;;;;;;-1.45;100.00;93597.53;2094154;28;20437;-87
2021/10/25 01:32:42;;;;;;;2.03;1.80;;;;;;;-1.44;100.00;93599.84;2094816;28;20025;-87
2021/10/25 01:33:45;;;;;;;2.22;1.60;;;;;;;-1.42;100.00;93602.13;2097888;28;20411;-87
2021/10/25 01:34:47;;;;;;;2.30;1.60;;;;;;;-1.50;100.00;93610.88;2098082;28;20463;-87
2021/10/25 01:35:47;;;;;;;2.97;1.90;;;;;;;-1.61;100.00;93603.44;2090898;28;20025;-86
2021/10/25 01:36:49;;;;;;;2.17;1.98;;;;;;;-1.59;100.00;93608.34;2098075;28;20379;-86
2021/10/25 01:37:50;;;;;;;2.35;1.85;;;;;;;-1.55;100.00;93598.75;2097809;28;20515;-87
2021/10/25 01:38:51;;;;;;;2.95;1.67;;;;;;;-1.58;100.00;93602.81;2094315;28;20111;-87
2021/10/25 01:39:52;;;;;;;2.08;1.60;;;;;;;-1.49;100.00;93597.47;2090423;28;20449;-87
2021/10/25 01:40:53;;;;;;;1.65;1.50;;;;;;;-1.48;100.00;93588.50;2093207;28;20470;-87
2021/10/25 01:41:54;;;;;;;4.90;2.00;;;;;;;-1.42;100.00;93586.41;2098430;28;20027;-86
2021/10/25 01:42:55;;;;;;;1.85;1.73;;;;;;;-1.35;100.00;93586.63;2106319;28;20102;-86
2021/10/25 01:43:56;;;;;;;2.33;1.75;;;;;;;-1.36;100.00;93582.47;2105939;28;20051;-86
2021/10/25 01:44:57;;;;;;;2.35;2.10;;;;;;;-1.49;100.00;93591.44;2097988;28;20025;-87
2021/10/25 01:45:58;;;;;;;1.65;1.55;;;;;;;-1.49;100.00;93586.19;2097367;28;20070;-88
2021/10/25 01:47:00;;;;;;;1.67;1.58;;;;;;;-1.40;100.00;93585.00;2089758;28;20676;-86
2021/10/25 01:48:01;;;;;;;2.67;1.80;;;;;;;-1.44;100.00;93580.75;2081815;28;20026;-87
2021/10/25 01:49:04;;;;;;;2.08;1.60;;;;;;;-1.43;100.00;93587.50;2098028;28;20056;-87
2021/10/25 01:50:06;;;;;;;1.85;1.73;;;;;;;-1.39;100.00;93580.53;2098121;28;20028;-86
2021/10/25 01:51:07;;;;;;;3.47;2.10;;;;;;;-1.28;100.00;93581.59;2098066;28;20082;-86
2021/10/25 01:52:08;;;;;;;3.47;1.83;;;;;;;-1.32;100.00;93575.47;2098443;28;20111;-87
2021/10/25 01:53:10;;;;;;;2.85;1.85;;;;;;;-1.26;100.00;93566.31;2097914;28;20025;-87
2021/10/25 01:54:11;;;;;;;2.30;1.58;;;;;;;-1.28;100.00;93563.22;2097761;28;20056;-87
2021/10/25 01:55:13;;;;;;;3.22;2.17;;;;;;;-1.25;100.00;93569.69;2089859;28;20029;-87
2021/10/25 01:56:15;;;;;;;2.80;1.55;;;;;;;-1.22;100.00;93571.66;2089480;28;20166;-87
2021/10/25 01:57:16;;;;;;;3.38;1.55;;;;;;;-1.15;100.00;93569.22;2098021;28;20120;-87
2021/10/25 01:58:17;;;;;;;2.40;1.70;;;;;;;-1.18;100.00;93565.44;2090029;28;20063;-86
2021/10/25 01:59:18;;;;;;;2.72;1.92;;;;;;;-1.27;100.00;93560.31;2089189;28;20108;-87
2021/10/25 02:00:19;;;;;;;2.00;1.63;;;;;;;-1.34;100.00;93561.94;2092147;28;20072;-86
2021/10/25 02:01:22;;;;;;;2.00;1.60;;;;;;;-1.38;100.00;93566.31;2098015;28;20466;-86
2021/10/25 02:02:24;;;;;;;1.65;1.50;;;;;;;-1.38;100.00;93564.44;2089548;28;20055;-86
2021/10/25 02:03:29;;;;;;;1.75;1.58;;;;;;;-1.24;100.00;93560.72;2098920;28;20375;-86
2021/10/25 02:04:31;;;;;;;2.30;1.70;;;;;;;-1.14;100.00;93555.81;2090478;28;20111;-87
2021/10/25 02:05:32;;;;;;;2.97;1.63;;;;;;;-1.17;100.00;93553.06;2081868;28;20486;-87
2021/10/25 02:08:10;;;;;;;;;;;;;;;-1.12;100.00;93553.59;2149095;27;20113;-88
2021/10/25 02:09:11;;;;;;;1.38;1.27;;;;;;;-1.17;100.00;93560.94;2124487;27;19915;-87
2021/10/25 02:10:12;;;;;;;3.58;1.40;;;;;;;-1.25;100.00;93557.34;2113538;28;20456;-84
2021/10/25 02:11:15;;;;;;;2.15;1.45;;;;;;;-1.19;100.00;93556.00;2110823;28;20115;-88
2021/10/25 02:12:16;;;;;;;2.03;1.27;;;;;;;-1.13;100.00;93557.31;2121950;27;20110;-89
2021/10/25 02:13:18;;;;;;;3.72;1.75;;;;;;;-1.16;100.00;93555.34;2113141;28;20028;-86
2021/10/25 02:14:19;;;;;;;1.33;1.23;;;;;;;-1.12;100.00;93550.97;2113947;27;20456;-86
2021/10/25 02:15:20;;;;;;;1.98;1.55;;;;;;;-1.05;100.00;93550.44;2113408;28;20034;-85
2021/10/25 02:16:21;;;;;;;2.45;1.50;;;;;;;-1.07;100.00;93536.88;2113670;28;20085;-87
2021/10/25 02:17:22;;;;;;;3.22;1.48;;;;;;;-1.14;100.00;93542.69;2113353;27;20027;-88
2021/10/25 02:18:23;;;;;;;1.77;1.42;;;;;;;-1.19;100.00;93552.63;2113771;27;20430;-90
2021/10/25 02:19:24;;;;;;;1.33;1.20;;;;;;;-1.15;100.00;93545.63;2113794;27;20124;-85
2021/10/25 02:20:26;;;;;;;3.80;1.52;;;;;;;-1.18;100.00;93551.56;2113452;27;20028;-86
2021/10/25 02:21:26;;;;;;;1.50;1.38;;;;;;;-1.27;100.00;93549.06;2116993;28;20027;-87
2021/10/25 02:22:27;;;;;;;2.05;1.30;;;;;;;-1.19;100.00;93547.38;2105101;28;20795;-84
2021/10/25 02:23:28;;;;;;;2.22;1.77;;;;;;;-1.11;100.00;93549.88;2110507;27;20047;-86
2021/10/25 02:24:30;;;;;;;2.42;1.33;;;;;;;-1.13;100.00;93549.47;2113457;28;20102;-86
2021/10/25 02:25:31;;;;;;;2.85;1.30;;;;;;;-1.06;100.00;93556.75;2106717;28;20047;-87
2021/10/25 02:26:32;;;;;;;3.15;1.45;;;;;;;-1.05;100.00;93548.56;2112575;28;20063;-88
2021/10/25 02:27:33;;;;;;;2.30;1.08;;;;;;;-1.06;100.00;93544.41;2109665;27;20027;-88
2021/10/25 02:28:34;;;;;;;2.58;1.45;;;;;;;-1.06;100.00;93543.63;2113479;28;20036;-86
2021/10/25 02:29:35;;;;;;;3.85;1.30;;;;;;;-1.04;100.00;93547.47;2113348;28;20455;-85
2021/10/25 02:30:36;;;;;;;2.35;1.27;;;;;;;-1.09;100.00;93544.31;2105128;28;20070;-84
2021/10/25 02:31:38;;;;;;;3.30;1.55;;;;;;;-1.10;100.00;93548.81;2104819;28;20028;-88
2021/10/25 02:32:39;;;;;;;2.92;1.30;;;;;;;-1.04;100.00;93547.47;2121910;27;20510;-87
2021/10/25 02:33:40;;;;;;;1.92;1.40;;;;;;;-1.00;100.00;93547.56;2129544;27;20053;-86
2021/10/25 02:34:44;;;;;;;3.08;1.50;;;;;;;-0.98;100.00;93548.00;2113419;28;20040;-87
2021/10/25 02:35:46;;;;;;;6.03;1.38;;;;;;;-0.98;100.00;93542.00;2105049;28;20401;-85
2021/10/25 02:36:47;;;;;;;1.95;1.52;;;;;;;-0.94;100.00;93545.47;2104875;28;20036;-85
2021/10/25 02:37:48;;;;;;;2.97;1.35;;;;;;;-0.93;100.00;93539.88;2108990;28;20036;-89
2021/10/25 02:38:49;;;;;;;3.78;1.75;;;;;;;-0.91;100.00;93537.72;2104487;28;20417;-89
2021/10/25 02:39:50;;;;;;;1.88;1.40;;;;;;;-0.92;100.00;93540.66;2103510;28;20024;-86
2021/10/25 02:40:51;;;;;;;6.10;1.60;;;;;;;-0.94;100.00;93537.59;2100950;28;20073;-89
2021/10/25 02:41:52;;;;;;;1.98;1.50;;;;;;;-0.69;100.00;93540.94;2105349;28;20075;-90
2021/10/25 02:42:54;;;;;;;2.38;1.60;;;;;;;-0.74;100.00;93531.44;2113459;28;20039;-85
2021/10/25 02:43:55;;;;;;;2.10;1.60;;;;;;;-0.72;100.00;93531.84;2112871;28;20020;-87
2021/10/25 02:44:57;;;;;;;3.40;1.80;;;;;;;-0.81;100.00;93526.75;2104617;28;20027;-85
2021/10/25 02:45:59;;;;;;;4.20;1.95;;;;;;;-0.85;100.00;93535.59;2096543;28;20033;-84
2021/10/25 02:47:01;;;;;;;2.25;1.75;;;;;;;-0.87;100.00;93533.31;2096569;28;20381;-86
2021/10/25 02:48:03;;;;;;;1.48;1.25;;;;;;;-0.95;100.00;93523.72;2109664;27;20027;-86
2021/10/25 02:49:04;;;;;;;3.10;1.45;;;;;;;-0.99;100.00;93529.97;2110660;28;20023;-87
2021/10/25 02:50:05;;;;;;;1.95;1.67;;;;;;;-0.84;100.00;93522.16;2109433;28;20067;-87
2021/10/25 02:51:06;;;;;;;1.95;1.67;;;;;;;-0.83;100.00;93510.56;2113114;28;20032;-88
2021/10/25 02:52:07;;;;;;;2.38;1.70;;;;;;;-0.86;100.00;93518.34;2101114;28;20507;-85
2021/10/25 02:53:09;;;;;;;1.85;1.60;;;;;;;-0.90;100.00;93513.00;2113227;28;20031;-86
2021/10/25 02:54:11;;;;;;;2.03;1.60;;;;;;;-0.89;100.00;93511.13;2112977;28;20365;-87
2021/10/25 02:55:12;;;;;;;2.25;1.80;;;;;;;-0.80;100.00;93509.13;2097158;28;20025;-85
2021/10/25 02:56:13;;;;;;;1.70;1.50;;;;;;;-0.94;100.00;93498.25;2109259;28;20024;-86
2021/10/25 02:57:16;;;;;;;1.42;1.33;;;;;;;-1.01;100.00;93498.81;2113113;28;20028;-84
2021/10/25 02:58:17;;;;;;;1.55;1.42;;;;;;;-0.98;100.00;93500.00;2105131;28;20029;-86
2021/10/25 02:59:18;;;;;;;2.60;1.60;;;;;;;-1.04;100.00;93504.75;2105038;28;20032;-88
2021/10/25 03:00:19;;;;;;;2.40;1.75;;;;;;;-1.07;100.00;93497.53;2108661;28;20570;-85
2021/10/25 03:01:20;;;;;;;1.60;1.40;;;;;;;-0.97;100.00;93504.16;2096463;28;20134;-88
2021/10/25 03:02:21;;;;;;;1.75;1.48;;;;;;;-0.90;100.00;93499.13;2109095;28;20027;-86
2021/10/25 03:03:26;;;;;;;2.53;1.70;;;;;;;-1.03;100.00;93498.38;2105295;28;20031;-84
2021/10/25 03:04:29;;;;;;;1.73;1.48;;;;;;;-1.06;100.00;93494.56;2101492;28;20028;-85
2021/10/25 03:05:30;;;;;;;1.58;1.48;;;;;;;-1.08;100.00;93506.50;2096943;28;20032;-84
2021/10/25 03:06:35;;;;;;;1.70;1.48;;;;;;;-1.16;100.00;93508.16;2103336;28;20381;-87
2021/10/25 03:07:35;;;;;;;2.90;1.40;;;;;;;-1.11;100.00;93507.16;2105044;28;20120;-87
2021/10/25 03:08:40;;;;;;;1.42;1.20;;;;;;;-1.07;100.00;93508.78;2113506;28;20024;-92
2021/10/25 03:09:44;;;;;;;2.30;1.75;;;;;;;-1.08;100.00;93509.88;2106117;28;20021;-87
2021/10/25 03:10:45;;;;;;;2.28;1.20;;;;;;;-1.04;100.00;93505.50;2104731;28;20028;-86
2021/10/25 03:11:46;;;;;;;1.88;1.30;;;;;;;-1.08;100.00;93502.00;2096192;28;20029;-89
2021/10/25 03:12:47;;;;;;;1.75;1.45;;;;;;;-1.12;100.00;93510.88;2102120;28;20031;-86
2021/10/25 03:13:48;;;;;;;3.75;1.63;;;;;;;-1.15;100.00;93503.66;2104879;28;20032;-85
2021/10/25 03:14:49;;;;;;;2.03;1.25;;;;;;;-1.22;100.00;93513.97;2102691;28;20385;-86
2021/10/25 03:15:51;;;;;;;1.40;1.17;;;;;;;-1.24;100.00;93516.16;2104527;28;20086;-86
2021/10/25 03:16:52;;;;;;;2.00;1.15;;;;;;;-1.28;100.00;93510.78;2110382;28;20114;-87
2021/10/25 03:17:53;;;;;;;1.83;1.60;;;;;;;-1.22;100.00;93513.97;2104626;28;20020;-87
2021/10/25 03:18:55;;;;;;;3.28;1.65;;;;;;;-1.23;100.00;93520.28;2100292;28;20024;-85
2021/10/25 03:19:56;;;;;;;4.18;2.05;;;;;;;-1.19;100.00;93518.53;2090540;28;20029;-86
2021/10/25 03:20:57;;;;;;;1.90;1.50;;;;;;;-1.16;100.00;93520.50;2096818;28;20051;-92
2021/10/25 03:21:58;;;;;;;2.42;1.92;;;;;;;-1.17;100.00;93527.59;2099044;28;20083;-85
2021/10/25 03:22:59;;;;;;;3.22;1.52;;;;;;;-1.20;100.00;93522.25;2109246;28;20492;-88
2021/10/25 03:24:00;;;;;;;2.20;1.30;;;;;;;-1.17;100.00;93519.75;2104452;28;20051;-87
2021/10/25 03:25:03;;;;;;;3.60;1.75;;;;;;;-1.23;100.00;93533.41;2107465;28;20024;-85
2021/10/25 03:26:04;;;;;;;1.60;1.30;;;;;;;-1.19;100.00;93529.78;2103457;28;20122;-87
2021/10/25 03:27:05;;;;;;;1.85;1.27;;;;;;;-1.26;100.00;93524.34;2090780;28;20021;-85
2021/10/25 03:28:06;;;;;;;2.30;1.50;;;;;;;-1.28;100.00;93526.53;2095706;28;20024;-83
2021/10/25 03:29:07;;;;;;;2.33;1.23;;;;;;;-1.24;100.00;93524.00;2098917;28;20082;-88
2021/10/25 03:30:11;;;;;;;1.67;1.20;;;;;;;-1.22;100.00;93519.22;2100986;28;20111;-88
2021/10/25 03:31:12;;;;;;;1.90;1.40;;;;;;;-1.29;100.00;93525.75;2099395;28;20028;-86
2021/10/25 03:32:13;;;;;;;3.00;1.50;;;;;;;-1.29;100.00;93523.13;2103630;28;20079;-84
2021/10/25 03:33:15;;;;;;;2.20;1.48;;;;;;;-1.27;100.00;93525.44;2107091;28;20062;-88
2021/10/25 03:34:16;;;;;;;2.60;1.63;;;;;;;-1.26;100.00;93521.72;2107106;28;20060;-85
2021/10/25 03:35:17;;;;;;;2.13;1.92;;;;;;;-1.30;100.00;93524.25;2107506;28;20472;-85
2021/10/25 03:36:21;;;;;;;2.28;1.67;;;;;;;-1.19;100.00;93524.53;2098763;28;20029;-87
2021/10/25 03:37:22;;;;;;;1.40;1.30;;;;;;;-1.12;100.00;93524.00;2103871;28;20062;-85
2021/10/25 03:38:23;;;;;;;1.50;1.40;;;;;;;-1.14;100.00;93516.47;2107066;27;20020;-87
2021/10/25 03:39:26;;;;;;;2.35;1.50;;;;;;;-1.08;100.00;93509.88;2107213;28;20092;-85
2021/10/25 03:40:30;;;;;;;1.60;1.40;;;;;;;-1.00;100.00;93512.72;2107517;27;20036;-88
2021/10/25 03:41:35;;;;;;;5.45;1.83;;;;;;;-1.01;100.00;93511.91;2107761;28;20510;-86
2021/10/25 03:42:41;;;;;;;2.33;1.40;;;;;;;-1.12;100.00;93511.63;2099656;28;20024;-87
2021/10/25 03:43:48;;;;;;;1.73;1.52;;;;;;;-1.10;100.00;93512.09;2099585;28;20025;-88
2021/10/25 03:44:58;;;;;;;6.75;1.98;;;;;;;-1.08;100.00;93517.75;2115938;27;20023;-87
2021/10/25 03:46:22;;;;;;;2.35;1.60;;;;;;;-1.04;100.00;93510.75;2115905;27;20075;-89
2021/10/25 03:47:36;;;;;;;1.23;1.13;;;;;;;-1.07;100.00;93508.78;2101903;28;20100;-87
2021/10/25 03:49:02;;;;;;;3.47;1.40;;;;;;;-0.99;100.00;93511.59;2106151;28;20110;-86
2021/10/25 03:51:08;;;;;;;2.55;1.58;;;;;;;-0.96;100.00;93506.47;2115499;28;20024;-88
2021/10/25 03:53:46;;;;;;;1.98;1.40;;;;;;;-0.99;100.00;93501.88;2072566;28;20095;-87
2021/10/25 03:54:59;;;;;;;2.97;1.40;;;;;;;-1.03;100.00;93501.78;2104257;28;20458;-85
2021/10/25 03:56:08;;;;;;;3.28;1.35;;;;;;;-0.99;100.00;93504.50;2108126;28;20622;-84
2021/10/25 04:03:05;;;;;;;2.15;1.80;;;;;;;-0.95;100.00;93505.38;2120173;27;20023;-85
2021/10/25 04:28:55;;;;;;;;;;;;;;;-1.16;100.00;93508.16;2098181;28;20083;-85
2021/10/25 04:30:05;;;;;;;4.15;3.75;;;;;;;-1.18;100.00;93507.72;2098434;28;20006;-85
2021/10/25 04:31:07;;;;;;;;;;;;;;;-1.18;100.00;93514.84;2099784;28;20083;-86
2021/10/25 04:32:08;;;;;;;6.18;1.77;;;;;;;-1.04;100.00;93515.22;2098429;28;19916;-85
2021/10/25 04:33:09;;;;;;;5.43;2.10;;;;;;;-0.97;100.00;93514.66;2099305;28;20395;-85
2021/10/25 04:34:10;;;;;;;4.20;2.47;;;;;;;-0.92;100.00;93511.78;2098388;28;20021;-84
2021/10/25 04:35:12;;;;;;;4.15;3.42;;;;;;;-0.91;100.00;93514.09;2106836;28;20019;-85
2021/10/25 04:36:14;;;;;;;3.92;3.47;;;;;;;-0.98;100.00;93513.88;2104403;28;20377;-85
2021/10/25 04:37:15;;;;;;;6.85;3.95;;;;;;;-0.99;100.00;93512.38;2100813;28;20021;-83
2021/10/25 04:38:16;;;;;;;6.90;6.20;;;;;;;-0.97;100.00;93518.03;2097943;28;20643;-89
2021/10/25 04:39:17;;;;;;;7.90;6.60;;;;;;;-0.96;100.00;93524.84;2098344;28;20024;-93
2021/10/25 04:40:18;;;;;;;6.35;5.32;;;;;;;-0.96;100.00;93524.84;2106478;28;20110;-84
2021/10/25 04:41:19;;;;;;;9.57;4.70;;;;;;;-0.97;100.00;93518.03;2104354;28;20464;-85
2021/10/25 04:42:20;;;;;;;4.90;4.50;;;;;;;-0.88;100.00;93517.91;2100448;28;20103;-85
2021/10/25 04:43:21;;;;;;;3.67;3.38;;;;;;;-0.84;100.00;93524.78;2093606;28;20135;-84
2021/10/25 04:44:24;;;;;;;3.85;3.40;;;;;;;-0.70;100.00;93518.38;2091955;28;20049;-86
2021/10/25 04:45:25;;;;;;;3.25;2.95;;;;;;;-0.79;100.00;93513.28;2097839;28;20505;-88
2021/10/25 04:46:26;;;;;;;4.50;4.10;;;;;;;-0.89;100.00;93509.25;2099464;28;20079;-88
2021/10/25 04:47:27;;;;;;;4.20;3.78;;;;;;;-0.91;100.00;93505.47;2098031;28;20043;-83
2021/10/25 04:48:28;;;;;;;4.93;4.53;;;;;;;-0.89;100.00;93505.88;2098922;28;20036;-84
2021/10/25 04:49:29;;;;;;;4.72;4.32;;;;;;;-0.87;100.00;93511.56;2103553;28;20024;-87
2021/10/25 04:50:30;;;;;;;5.18;4.68;;;;;;;-0.90;100.00;93501.75;2101329;28;20072;-85
2021/10/25 04:51:34;;;;;;;4.88;4.38;;;;;;;-0.93;100.00;93505.78;2104715;27;20016;-84
2021/10/25 04:52:35;;;;;;;3.50;3.20;;;;;;;-0.94;100.00;93501.63;2114405;28;20026;-88
2021/10/25 04:53:36;;;;;;;5.95;3.13;;;;;;;-0.88;100.00;93502.16;2108776;28;20111;-87
2021/10/25 04:54:38;;;;;;;3.20;2.50;;;;;;;-0.92;100.00;93509.97;2103518;28;20024;-84
2021/10/25 04:55:39;;;;;;;5.75;3.60;;;;;;;-0.97;100.00;93514.66;2098049;28;20016;-85
2021/10/25 04:56:40;;;;;;;3.92;3.55;;;;;;;-0.98;100.00;93515.75;2101708;28;20044;-87
2021/10/25 04:57:41;;;;;;;2.55;1.85;;;;;;;-0.96;100.00;93522.22;2104505;28;20376;-85
2021/10/25 04:58:43;;;;;;;7.90;2.80;;;;;;;-1.01;100.00;93517.16;2097490;28;20481;-90
2021/10/25 04:59:44;;;;;;;2.67;2.40;;;;;;;-0.98;100.00;93516.50;2111016;27;20027;-85
2021/10/25 05:00:45;;;;;;;3.45;2.80;;;;;;;-0.88;100.00;93510.03;2104138;28;20119;-87
2021/10/25 05:01:46;;;;;;;3.08;2.70;;;;;;;-0.94;100.00;93508.75;2103546;28;20020;-84
2021/10/25 05:02:47;;;;;;;4.15;2.45;;;;;;;-0.90;100.00;93505.13;2105694;28;20028;-83
2021/10/25 05:03:49;;;;;;;2.67;1.88;;;;;;;-0.92;100.00;93506.53;2095032;28;20048;-88
2021/10/25 05:04:50;;;;;;;3.30;2.10;;;;;;;-0.89;100.00;93506.66;2092622;28;20127;-85
2021/10/25 05:05:51;;;;;;;3.03;2.25;;;;;;;-0.89;100.00;93504.03;2096624;28;20031;-84
2021/10/25 05:06:54;;;;;;;3.70;2.20;;;;;;;-0.83;100.00;93500.06;2106246;28;20026;-84
2021/10/25 05:07:57;;;;;;;2.00;1.88;;;;;;;-0.89;100.00;93498.00;2106205;28;20550;-85
2021/10/25 05:08:58;;;;;;;1.98;1.88;;;;;;;-0.97;100.00;93488.41;2106629;28;20020;-86
2021/10/25 05:10:02;;;;;;;1.75;1.52;;;;;;;-1.01;100.00;93493.56;2098019;28;20024;-86
2021/10/25 05:11:03;;;;;;;2.40;1.70;;;;;;;-1.10;100.00;93496.34;2097584;28;20052;-88
2021/10/25 05:12:04;;;;;;;3.47;1.88;;;;;;;-1.18;100.00;93491.22;2106437;28;20016;-88
2021/10/25 05:13:05;;;;;;;1.85;1.67;;;;;;;-1.18;100.00;93486.00;2106254;28;20024;-85
2021/10/25 05:14:07;;;;;;;1.80;1.70;;;;;;;-1.16;100.00;93491.66;2106315;28;20028;-85
2021/10/25 05:15:09;;;;;;;2.10;1.70;;;;;;;-1.20;100.00;93496.78;2098276;28;20119;-87
2021/10/25 05:16:10;;;;;;;1.70;1.58;;;;;;;-1.14;100.00;93500.72;2098443;28;20020;-89
2021/10/25 05:17:11;;;;;;;2.65;1.73;;;;;;;-1.10;100.00;93503.44;2097603;28;20024;-84
2021/10/25 05:18:13;;;;;;;3.20;1.75;;;;;;;-0.94;100.00;93511.38;2106305;28;20103;-88
2021/10/25 05:19:14;;;;;;;3.25;1.65;;;;;;;-1.02;100.00;93507.78;2108315;28;20027;-87
2021/10/25 05:20:15;;;;;;;2.42;1.95;;;;;;;-1.03;100.00;93508.88;2098054;28;20048;-86
2021/10/25 05:21:16;;;;;;;4.70;2.45;;;;;;;-1.04;100.00;93502.13;2097507;28;20396;-84
2021/10/25 05:22:18;;;;;;;6.72;3.83;;;;;;;-1.07;100.00;93505.41;2097644;28;20063;-86
2021/10/25 05:23:19;;;;;;;5.10;3.95;;;;;;;-1.16;100.00;93500.28;2105543;28;20021;-85